createdAt,value
2022-12-18T00:00:43.814Z,-5.35
2022-12-18T00:05:50.474Z,-5.60
2022-12-18T00:10:52.708Z,-5.50
2022-12-18T00:15:56.668Z,-5.90
2022-12-18T00:21:03.959Z,-5.63
2022-12-18T00:26:08.908Z,-5.49
2022-12-18T00:31:13.625Z,-5.25
2022-12-18T00:36:24.603Z,-5.24
2022-12-18T00:41:47.029Z,-7.18
2022-12-18T00:46:49.797Z,-6.01
2022-12-18T00:51:52.400Z,-5.75
2022-12-18T00:56:56.380Z,-6.31
2022-12-18T01:01:58.688Z,-5.60
2022-12-18T01:07:01.183Z,-5.64
2022-12-18T01:12:03.427Z,-5.56
2022-12-18T01:17:06.195Z,-5.64
2022-12-18T01:22:09.044Z,-5.86
2022-12-18T01:27:11.353Z,-5.71
2022-12-18T01:32:13.917Z,-5.62
2022-12-18T01:37:17.197Z,-5.81
2022-12-18T01:42:19.595Z,-5.41
2022-12-18T01:47:43.108Z,-5.34
2022-12-18T01:52:53.295Z,-5.35
2022-12-18T01:57:57.377Z,-5.60
2022-12-18T02:02:59.797Z,-5.58
2022-12-18T02:08:13.739Z,-5.38
2022-12-18T02:13:28.133Z,-5.67
2022-12-18T02:18:57.284Z,-5.74
2022-12-18T02:24:24.423Z,-5.39
2022-12-18T02:29:43.088Z,-5.79
2022-12-18T02:34:45.797Z,-5.63
2022-12-18T02:39:52.826Z,-5.49
2022-12-18T02:44:56.251Z,-5.71
2022-12-18T02:50:31.781Z,-5.48
2022-12-18T02:55:38.387Z,-5.53
2022-12-18T03:00:55.124Z,-5.85
2022-12-18T03:06:06.240Z,-5.69
2022-12-18T03:11:12.108Z,-6.02
2022-12-18T03:16:25.634Z,-5.76
2022-12-18T03:21:33.510Z,-5.75
2022-12-18T03:26:36.654Z,-5.67
2022-12-18T03:31:41.712Z,-5.87
2022-12-18T03:36:44.198Z,-6.29
2022-12-18T03:41:50.503Z,-5.71
2022-12-18T03:47:24.287Z,-6.19
2022-12-18T03:52:38.812Z,-5.99
2022-12-18T03:57:43.848Z,-6.36
2022-12-18T04:02:51.056Z,-5.76
2022-12-18T04:07:58.915Z,-6.05
2022-12-18T04:13:01.421Z,-5.95
2022-12-18T04:18:05.017Z,-6.33
2022-12-18T04:23:14.853Z,-6.35
2022-12-18T04:28:17.488Z,-6.73
2022-12-18T04:33:20.054Z,-6.12
2022-12-18T04:38:22.456Z,-6.17
2022-12-18T04:43:34.085Z,-6.11
2022-12-18T04:48:38.535Z,-6.24
2022-12-18T04:53:41.159Z,-6.24
2022-12-18T04:58:45.362Z,-6.99
2022-12-18T05:03:47.936Z,-6.62
2022-12-18T05:08:50.293Z,-6.82
2022-12-18T05:13:52.529Z,-6.32
2022-12-18T05:18:54.908Z,-6.46
2022-12-18T05:23:57.135Z,-6.37
2022-12-18T05:28:59.376Z,-6.30
2022-12-18T05:34:01.597Z,-6.65
2022-12-18T05:39:04.121Z,-6.15
2022-12-18T05:44:06.658Z,-6.75
2022-12-18T05:49:08.938Z,-6.56
2022-12-18T05:54:11.248Z,-6.39
2022-12-18T05:59:13.473Z,-6.26
2022-12-18T06:04:15.983Z,-6.23
2022-12-18T06:09:18.224Z,-6.34
2022-12-18T06:14:20.435Z,-6.42
2022-12-18T06:19:22.747Z,-6.10
2022-12-18T06:24:24.969Z,-6.55
2022-12-18T06:29:27.222Z,-6.66
2022-12-18T06:34:32.147Z,-6.22
2022-12-18T06:39:34.396Z,-6.50
2022-12-18T06:44:37.098Z,-6.27
2022-12-18T06:49:39.551Z,-6.93
2022-12-18T06:54:41.758Z,-6.18
2022-12-18T06:59:44.006Z,-6.28
2022-12-18T07:04:46.195Z,-6.91
2022-12-18T07:09:50.502Z,-6.17
2022-12-18T07:14:52.688Z,-6.13
2022-12-18T07:19:54.874Z,-6.23
2022-12-18T07:24:57.140Z,-6.42
2022-12-18T07:29:59.403Z,-6.58
2022-12-18T07:35:01.590Z,-6.09
2022-12-18T07:40:06.130Z,-6.19
2022-12-18T07:45:08.669Z,-6.08
2022-12-18T07:50:11.081Z,-6.25
2022-12-18T07:55:13.349Z,-6.04
2022-12-18T08:00:16.010Z,-5.78
2022-12-18T08:05:18.593Z,-6.08
2022-12-18T08:10:21.505Z,-6.08
2022-12-18T08:15:23.931Z,-5.72
2022-12-18T08:20:28.017Z,-5.83
2022-12-18T08:25:30.233Z,-6.04
2022-12-18T08:30:32.575Z,-6.13
2022-12-18T08:35:44.078Z,-5.82
2022-12-18T08:40:48.038Z,-5.60
2022-12-18T08:45:50.380Z,-6.12
2022-12-18T08:50:59.898Z,-5.83
2022-12-18T08:56:02.029Z,-5.44
2022-12-18T09:01:06.161Z,-5.99
2022-12-18T09:06:08.891Z,-5.49
2022-12-18T09:11:16.816Z,-5.90
2022-12-18T09:16:19.538Z,-5.65
2022-12-18T09:21:22.428Z,-5.76
2022-12-18T09:26:25.474Z,-5.45
2022-12-18T09:31:27.722Z,-5.76
2022-12-18T09:36:29.960Z,-5.92
2022-12-18T09:41:56.967Z,-5.73
2022-12-18T09:47:20.202Z,-5.38
2022-12-18T09:52:57.203Z,-5.64
2022-12-18T09:58:06.337Z,-5.93
2022-12-18T10:03:14.823Z,-5.53
2022-12-18T10:08:26.244Z,-5.34
2022-12-18T10:13:43.565Z,-5.36
2022-12-18T10:18:45.783Z,-5.35
2022-12-18T10:24:03.760Z,-5.38
2022-12-18T10:29:12.732Z,-5.36
2022-12-18T10:34:16.116Z,-6.29
2022-12-18T10:39:24.586Z,-5.38
2022-12-18T10:44:29.572Z,-5.59
2022-12-18T10:49:33.992Z,-5.70
2022-12-18T10:54:36.676Z,-5.47
2022-12-18T10:59:55.973Z,-5.99
2022-12-18T11:04:58.197Z,-5.52
2022-12-18T11:10:04.715Z,-6.25
2022-12-18T11:15:07.832Z,-5.59
2022-12-18T11:20:27.842Z,-5.35
2022-12-18T11:25:32.572Z,-5.82
2022-12-18T11:30:37.952Z,-5.70
2022-12-18T11:35:53.269Z,-5.31
2022-12-18T11:41:05.349Z,-5.57
2022-12-18T11:46:17.671Z,-5.36
2022-12-18T11:51:31.668Z,-5.53
2022-12-18T11:56:38.015Z,-5.34
2022-12-18T12:02:18.852Z,-5.36
2022-12-18T12:07:59.128Z,-5.44
2022-12-18T12:13:04.363Z,-5.37
2022-12-18T12:18:15.945Z,-5.65
2022-12-18T12:23:27.863Z,-5.36
2022-12-18T12:28:36.293Z,-5.36
2022-12-18T12:33:54.810Z,-5.71
2022-12-18T12:38:59.686Z,-5.75
2022-12-18T12:44:05.832Z,-5.66
2022-12-18T12:49:16.480Z,-5.50
2022-12-18T12:54:25.065Z,-5.48
2022-12-18T12:59:52.584Z,-5.25
2022-12-18T13:05:01.798Z,-5.61
2022-12-18T13:10:19.178Z,-5.22
2022-12-18T13:15:44.489Z,-5.80
2022-12-18T13:21:04.121Z,-5.34
2022-12-18T13:26:12.167Z,-5.28
2022-12-18T13:31:16.252Z,-5.67
2022-12-18T13:36:27.359Z,-5.31
2022-12-18T13:41:30.438Z,-5.66
2022-12-18T13:46:32.717Z,-5.32
2022-12-18T13:51:37.600Z,-5.41
2022-12-18T13:56:45.306Z,-5.79
2022-12-18T14:01:54.815Z,-5.78
2022-12-18T14:07:15.126Z,-5.63
2022-12-18T14:12:46.697Z,-5.38
2022-12-18T14:17:52.456Z,-5.86
2022-12-18T14:22:55.792Z,-5.53
2022-12-18T14:28:16.697Z,-5.55
2022-12-18T14:33:25.757Z,-5.58
2022-12-18T14:38:36.125Z,-5.57
2022-12-18T14:43:41.598Z,-6.43
2022-12-18T14:48:44.670Z,-5.84
2022-12-18T14:53:55.817Z,-5.83
2022-12-18T14:59:04.625Z,-5.69
2022-12-18T15:04:26.647Z,-5.67
2022-12-18T15:09:29.063Z,-6.06
2022-12-18T15:14:33.015Z,-5.79
2022-12-18T15:19:40.597Z,-5.81
2022-12-18T15:24:44.110Z,-6.12
2022-12-18T15:30:17.406Z,-6.14
2022-12-18T15:35:21.656Z,-5.95
2022-12-18T15:40:25.480Z,-6.35
2022-12-18T15:45:28.075Z,-6.24
2022-12-18T15:50:30.475Z,-6.50
2022-12-18T15:55:54.235Z,-6.65
2022-12-18T16:01:00.159Z,-6.64
2022-12-18T16:06:04.165Z,-7.10
2022-12-18T16:11:07.210Z,-7.02
2022-12-18T16:16:09.999Z,-7.01
2022-12-18T16:21:12.495Z,-6.87
2022-12-18T16:26:14.810Z,-7.32
2022-12-18T16:31:17.169Z,-7.24
2022-12-18T16:36:19.496Z,-7.24
2022-12-18T16:41:34.061Z,-7.71
2022-12-18T16:46:39.442Z,-7.30
2022-12-18T16:51:42.485Z,-7.46
2022-12-18T16:56:45.565Z,-7.36
2022-12-18T17:01:48.585Z,-7.09
2022-12-18T17:06:54.282Z,-7.68
2022-12-18T17:12:04.035Z,-7.92
2022-12-18T17:17:20.824Z,-7.45
2022-12-18T17:22:24.041Z,-7.55
2022-12-18T17:27:26.352Z,-7.66
2022-12-18T17:32:32.336Z,-7.80
2022-12-18T17:37:34.634Z,-7.71
2022-12-18T17:42:37.231Z,-8.21
2022-12-18T17:47:41.992Z,-7.77
2022-12-18T17:52:44.673Z,-8.26
2022-12-18T17:57:47.007Z,-7.78
2022-12-18T18:02:49.548Z,-8.30
2022-12-18T18:07:52.218Z,-8.00
2022-12-18T18:13:18.141Z,-7.98
2022-12-18T18:18:22.864Z,-8.07
2022-12-18T18:23:29.055Z,-9.37
2022-12-18T18:28:31.394Z,-8.44
2022-12-18T18:33:34.244Z,-8.60
2022-12-18T18:38:43.056Z,-8.70
2022-12-18T18:43:50.041Z,-8.76
2022-12-18T18:48:52.563Z,-9.01
2022-12-18T18:53:56.168Z,-8.60
2022-12-18T18:58:58.838Z,-8.73
2022-12-18T19:04:04.271Z,-8.94
2022-12-18T19:09:06.956Z,-9.18
2022-12-18T19:14:11.430Z,-8.72
2022-12-18T19:19:14.363Z,-8.88
2022-12-18T19:24:16.913Z,-9.02
2022-12-18T19:29:19.211Z,-9.42
2022-12-18T19:34:21.711Z,-9.33
2022-12-18T19:39:24.112Z,-9.64
2022-12-18T19:44:27.759Z,-9.69
2022-12-18T19:49:30.950Z,-10.19
2022-12-18T19:54:33.219Z,-9.90
2022-12-18T19:59:36.144Z,-9.57
2022-12-18T20:04:39.585Z,-9.18
2022-12-18T20:09:41.916Z,-9.35
2022-12-18T20:14:44.732Z,-9.56
2022-12-18T20:19:49.617Z,-9.57
2022-12-18T20:24:51.948Z,-9.42
2022-12-18T20:29:54.189Z,-9.65
2022-12-18T20:34:58.872Z,-10.10
2022-12-18T20:40:01.121Z,-9.80
2022-12-18T20:45:06.513Z,-10.24
2022-12-18T20:50:09.004Z,-9.87
2022-12-18T20:55:11.294Z,-9.75
2022-12-18T21:00:14.094Z,-9.76
2022-12-18T21:05:21.219Z,-9.75
2022-12-18T21:10:23.442Z,-10.16
2022-12-18T21:15:28.796Z,-10.04
2022-12-18T21:20:31.335Z,-10.00
2022-12-18T21:25:33.746Z,-10.34
2022-12-18T21:30:36.020Z,-10.33
2022-12-18T21:35:38.288Z,-10.05
2022-12-18T21:40:43.292Z,-10.33
2022-12-18T21:45:45.681Z,-10.27
2022-12-18T21:50:47.929Z,-10.27
2022-12-18T21:56:00.574Z,-10.55
2022-12-18T22:01:03.129Z,-9.80
2022-12-18T22:06:09.435Z,-10.50
2022-12-18T22:11:12.928Z,-10.30
2022-12-18T22:16:27.621Z,-10.22
2022-12-18T22:21:32.211Z,-10.01
2022-12-18T22:26:39.881Z,-10.12
2022-12-18T22:31:42.854Z,-10.55
2022-12-18T22:36:47.245Z,-10.02
2022-12-18T22:41:49.995Z,-10.03
2022-12-18T22:47:00.802Z,-10.68
2022-12-18T22:52:09.789Z,-10.55
2022-12-18T22:57:12.161Z,-10.17
2022-12-18T23:02:14.590Z,-10.45
2022-12-18T23:07:17.436Z,-10.28
2022-12-18T23:12:19.895Z,-10.13
2022-12-18T23:17:22.215Z,-10.14
2022-12-18T23:22:24.562Z,-10.25
2022-12-18T23:27:26.858Z,-10.26
2022-12-18T23:32:29.041Z,-10.43
2022-12-18T23:37:57.634Z,-10.16
2022-12-18T23:42:53.420Z,-10.29
2022-12-18T23:47:55.649Z,-10.40
2022-12-18T23:53:03.248Z,-11.12
2022-12-18T23:58:09.310Z,-10.71
